Terminal Aerodrome Forecast
Issued by NWS

Home | Current Version | Previous Version | Text Only | Print | Product List | Glossary On
Versions: 1 2 3 4 5 6 7 8 9 10 11 12 13 14 15 16 17 18
000
FTUS41 KPBZ 290207 AAA
TAFLBE
TAF AMD
KLBE 290207Z 2902/2924 18004KT P6SM SCT050
      TEMPO 2902/2903 3SM TSRA BKN015CB OVC045
     FM290500 23003KT 5SM BR SKC
     FM291400 21005KT P6SM SCT150
     FM291700 21004KT P6SM VCTS BKN050CB=

USA.gov is the U.S. government's official web portal to all federal, state and local government web resources and services.